Terminal Aerodrome Forecast
Issued by NWS Cleveland, OH

Home | Current Version | Previous Version | Text Only | Print | Product List | Glossary Off
Versions: 1 2 3 4 5 6 7 8 9 10 11 12 13 14 15 16 17 18

000
FTUS41 KCLE 191042 AAA
TAFCAK
TAF AMD
KCAK 191042Z 1911/2006 35010KT 1 1/2SM -SN BR BKN008 OVC012
      TEMPO 1911/1913 4SM -SN OVC012
     FM191300 34010G18KT P6SM -SHSN OVC012
     FM191500 34015G25KT P6SM OVC025
     FM200100 32004KT P6SM SKC=

USA.gov is the U.S. government's official web portal to all federal, state and local government web resources and services.